Time;durP1;ratioP1;P1;durP2;ratioP2;P2;SDS_P1;SDS_P2;PMS_P1;PMS_P2;Temp;Humidity;BMP_temperature;BMP_pressure;BME280_temperature;BME280_humidity;BME280_pressure;Samples;Min_cycle;Max_cycle;Signal;HPM_P1;HPM_P2
2022/01/04 00:04:35;;;;;;;0.95;0.50;;;12.30;71.00;;;;;;20702540;28;20041;-71
2022/01/04 00:14:36;;;;;;;0.80;0.60;;;12.30;71.10;;;;;;20744534;28;20057;-71
2022/01/04 00:24:36;;;;;;;0.75;0.52;;;12.30;71.10;;;;;;20727010;28;20730;-73
2022/01/04 00:34:37;;;;;;;2.10;0.90;;;12.30;71.10;;;;;;20726766;28;20080;-73
2022/01/04 00:44:37;;;;;;;0.97;0.63;;;12.30;71.10;;;;;;20726903;28;20332;-71
2022/01/04 00:54:40;;;;;;;1.20;0.55;;;12.30;71.10;;;;;;20725470;28;20809;-72
2022/01/04 01:04:40;;;;;;;0.45;0.40;;;12.30;71.10;;;;;;20741666;28;20049;-72
2022/01/04 01:14:41;;;;;;;2.22;0.57;;;12.30;71.10;;;;;;20757190;28;20022;-72
2022/01/04 01:24:41;;;;;;;0.85;0.40;;;12.30;71.20;;;;;;20755823;28;20037;-72
2022/01/04 01:34:42;;;;;;;0.65;0.40;;;12.30;71.20;;;;;;20722593;28;20128;-72
2022/01/04 01:44:43;;;;;;;1.05;0.70;;;12.30;71.20;;;;;;20738177;28;20042;-74
2022/01/04 01:54:43;;;;;;;2.78;0.75;;;12.30;71.20;;;;;;20753309;28;20026;-73
2022/01/04 02:04:44;;;;;;;0.73;0.60;;;12.30;71.20;;;;;;20754693;28;20038;-72
2022/01/04 02:14:51;;;;;;;1.85;0.77;;;12.30;71.20;;;;;;20736381;28;20038;-72
2022/01/04 02:24:52;;;;;;;1.33;0.60;;;12.30;71.20;;;;;;20726745;28;20038;-72
2022/01/04 02:34:52;;;;;;;1.33;0.80;;;12.30;71.20;;;;;;20709931;28;20053;-73
2022/01/04 02:44:53;;;;;;;1.42;0.85;;;12.30;71.20;;;;;;20734223;28;20033;-71
2022/01/04 02:54:53;;;;;;;3.67;1.10;;;12.20;71.20;;;;;;20716795;28;20141;-72
2022/01/04 03:04:54;;;;;;;2.22;0.50;;;12.20;71.20;;;;;;20715495;28;20038;-72
2022/01/04 03:14:55;;;;;;;1.30;0.50;;;12.20;71.20;;;;;;20714938;28;20033;-72
2022/01/04 03:24:55;;;;;;;1.63;1.23;;;12.20;71.20;;;;;;20714503;28;20136;-72
2022/01/04 03:35:02;;;;;;;0.80;0.60;;;12.20;71.20;;;;;;21133813;27;20399;-72
2022/01/04 03:45:04;;;;;;;0.47;0.45;;;12.20;71.20;;;;;;21146709;28;20468;-73
2022/01/04 03:55:05;;;;;;;0.40;0.35;;;12.20;71.20;;;;;;21130362;28;20055;-74
2022/01/04 04:05:06;;;;;;;0.43;0.40;;;12.20;71.10;;;;;;21128225;28;20081;-72
2022/01/04 04:15:08;;;;;;;0.45;0.40;;;12.20;71.10;;;;;;21111686;28;20058;-72
2022/01/04 04:25:09;;;;;;;0.98;0.65;;;12.20;71.10;;;;;;21126674;28;20027;-75
2022/01/04 04:35:10;;;;;;;1.20;0.70;;;12.20;71.10;;;;;;21142769;28;20421;-73
2022/01/04 04:45:10;;;;;;;0.68;0.40;;;12.20;71.10;;;;;;21057623;28;20385;-73
2022/01/04 04:55:11;;;;;;;1.25;0.70;;;12.20;71.10;;;;;;21051691;28;20036;-72
2022/01/04 05:05:12;;;;;;;0.87;0.70;;;12.20;71.10;;;;;;21084375;28;20028;-72
2022/01/04 05:15:12;;;;;;;1.00;0.50;;;12.20;71.10;;;;;;21083836;28;20648;-72
2022/01/04 05:25:13;;;;;;;0.43;0.33;;;12.50;70.60;;;;;;21049144;28;20063;-73
2022/01/04 05:35:13;;;;;;;0.40;0.40;;;12.90;69.60;;;;;;21082271;28;20732;-74
2022/01/04 05:45:14;;;;;;;1.37;0.60;;;13.30;68.20;;;;;;21032252;28;20034;-73
2022/01/04 05:55:15;;;;;;;0.90;0.38;;;13.70;66.90;;;;;;21062331;28;20274;-72
2022/01/04 06:05:15;;;;;;;1.13;0.63;;;14.00;65.80;;;;;;21045980;28;20028;-73
2022/01/04 06:15:16;;;;;;;0.20;0.20;;;14.10;65.20;;;;;;21063333;28;20088;-73
2022/01/04 06:25:19;;;;;;;0.25;0.25;;;14.00;65.20;;;;;;21078208;28;20032;-73
2022/01/04 06:35:20;;;;;;;0.22;0.22;;;13.60;65.80;;;;;;21077344;28;20148;-72
2022/01/04 06:45:21;;;;;;;0.13;0.13;;;13.30;66.50;;;;;;21042941;28;20545;-72
2022/01/04 06:55:21;;;;;;;2.13;0.50;;;13.10;67.30;;;;;;21059160;28;20040;-73
2022/01/04 07:05:22;;;;;;;1.48;0.43;;;12.90;67.90;;;;;;20984043;28;20294;-72
2022/01/04 07:15:22;;;;;;;0.52;0.50;;;12.70;68.40;;;;;;21002917;28;20479;-72
2022/01/04 07:25:24;;;;;;;1.27;0.70;;;12.60;68.80;;;;;;21001403;28;20066;-72
2022/01/04 07:35:24;;;;;;;0.45;0.45;;;12.50;69.20;;;;;;20972929;28;20625;-72
2022/01/04 07:45:34;;;;;;;1.13;0.70;;;12.40;69.50;;;;;;20970756;28;20108;-71
2022/01/04 07:55:36;;;;;;;0.63;0.47;;;12.30;69.80;;;;;;20971939;28;20478;-74
2022/01/04 08:05:37;;;;;;;1.20;0.60;;;12.30;70.00;;;;;;20963166;28;20546;-72
2022/01/04 08:15:37;;;;;;;0.70;0.45;;;12.30;70.20;;;;;;20991141;28;20036;-73
2022/01/04 08:25:38;;;;;;;0.52;0.32;;;12.30;70.90;;;;;;21000836;28;20039;-72
2022/01/04 08:35:40;;;;;;;0.85;0.30;;;12.20;70.30;;;;;;20983107;28;20063;-73
2022/01/04 08:45:41;;;;;;;0.57;0.47;;;12.20;70.40;;;;;;20967958;28;20048;-73
2022/01/04 08:55:44;;;;;;;1.13;0.35;;;12.20;70.40;;;;;;20996304;28;20040;-79
2022/01/04 09:05:45;;;;;;;0.52;0.40;;;12.20;70.40;;;;;;20983013;28;20028;-80
2022/01/04 09:18:42;;;;;;;0.73;0.47;;;12.20;70.50;;;;;;21038726;28;20039;-80
2022/01/04 09:26:06;;;;;;;0.25;0.25;;;12.20;70.50;;;;;;20985563;28;20348;-79
2022/01/04 09:36:06;;;;;;;1.63;0.40;;;12.20;70.50;;;;;;20966300;28;20119;-80
2022/01/04 09:46:07;;;;;;;1.30;0.60;;;12.20;70.50;;;;;;20978400;28;20329;-81
2022/01/04 09:56:09;;;;;;;0.63;0.50;;;12.20;70.60;;;;;;20952093;28;20644;-80
2022/01/04 10:06:15;;;;;;;0.65;0.30;;;12.20;70.60;;;;;;20975910;28;20313;-80
2022/01/04 10:16:16;;;;;;;;;;;12.20;70.70;;;;;;20960501;28;20047;-80
2022/01/04 10:26:17;;;;;;;0.32;0.30;;;12.20;70.70;;;;;;20999150;28;19995;-79
2022/01/04 10:36:19;;;;;;;0.40;0.40;;;12.10;70.70;;;;;;20960267;28;20037;-79
2022/01/04 10:46:56;;;;;;;0.80;0.60;;;12.10;70.70;;;;;;20914541;28;20040;-80
2022/01/04 10:57:08;;;;;;;0.65;0.50;;;12.10;70.70;;;;;;20935416;28;20390;-87
2022/01/04 11:07:09;;;;;;;0.70;0.55;;;12.10;70.70;;;;;;20976463;28;20047;-84
2022/01/04 11:17:10;;;;;;;0.93;0.60;;;12.20;70.70;;;;;;20959660;28;20491;-81
2022/01/04 11:27:10;;;;;;;1.15;0.68;;;12.50;70.00;;;;;;20960569;28;20044;-79
2022/01/04 11:37:26;;;;;;;1.27;0.80;;;13.00;68.70;;;;;;21181668;23;20057;-83
2022/01/04 11:47:28;;;;;;;0.60;0.40;;;13.50;67.20;;;;;;20635732;28;20404;-81
2022/01/04 11:57:29;;;;;;;1.30;0.63;;;13.90;65.90;;;;;;20599423;28;20042;-76
2022/01/04 12:07:38;;;;;;;0.93;0.65;;;14.00;64.90;;;;;;20647946;28;20057;-84
2022/01/04 12:17:42;;;;;;;0.88;0.70;;;14.10;64.30;;;;;;20668814;28;20034;-85
2022/01/04 12:28:14;;;;;;;1.50;0.70;;;14.20;64.00;;;;;;20649428;28;20560;-84
2022/01/04 12:38:19;;;;;;;1.38;0.93;;;14.00;64.00;;;;;;20666549;28;20041;-84
2022/01/04 12:48:47;;;;;;;1.42;1.10;;;13.70;64.70;;;;;;20644709;28;20070;-83
2022/01/04 12:58:48;;;;;;;2.33;1.20;;;13.40;65.60;;;;;;20644595;28;20369;-82
2022/01/04 13:08:55;;;;;;;4.97;1.80;;;13.10;66.30;;;;;;20643790;28;20038;-82
2022/01/04 13:19:19;;;;;;;2.97;1.40;;;12.90;67.00;;;;;;20640857;28;20069;-79
2022/01/04 13:29:22;;;;;;;7.05;1.90;;;12.70;67.50;;;;;;20641268;28;20054;-76
2022/01/04 13:39:25;;;;;;;3.28;1.73;;;12.70;67.90;;;;;;20640761;28;20775;-77
2022/01/04 13:49:26;;;;;;;2.55;1.48;;;12.50;68.30;;;;;;20656486;28;20046;-77
2022/01/04 13:59:27;;;;;;;3.72;1.70;;;12.40;68.60;;;;;;20649647;28;20026;-76
2022/01/04 14:09:35;;;;;;;2.92;1.45;;;12.40;68.90;;;;;;20622796;28;20950;-81
2022/01/04 14:19:51;;;;;;;5.07;2.10;;;12.30;69.10;;;;;;20636764;28;20063;-76
2022/01/04 14:29:56;;;;;;;5.63;2.20;;;12.30;69.30;;;;;;20637021;28;20038;-76
2022/01/04 14:39:57;;;;;;;3.83;2.10;;;12.30;69.30;;;;;;20651009;28;20045;-74
2022/01/04 14:49:59;;;;;;;4.03;1.83;;;12.30;69.50;;;;;;20703432;28;20395;-76
2022/01/04 15:00:01;;;;;;;3.92;2.30;;;12.30;69.60;;;;;;20664849;28;20084;-75
2022/01/04 15:10:06;;;;;;;3.15;1.52;;;12.30;69.60;;;;;;20641653;28;20100;-78
2022/01/04 15:20:07;;;;;;;4.00;1.70;;;12.30;69.60;;;;;;20616810;28;20039;-75
2022/01/04 15:30:09;;;;;;;2.45;1.40;;;12.30;69.70;;;;;;20629828;28;20042;-77
2022/01/04 15:40:17;;;;;;;2.83;1.35;;;12.30;69.70;;;;;;20656586;28;20359;-76
2022/01/04 15:50:17;;;;;;;2.47;1.02;;;12.40;69.40;;;;;;20643836;28;20058;-79
2022/01/04 16:00:19;;;;;;;3.17;1.13;;;12.70;68.70;;;;;;20594959;28;20392;-77
2022/01/04 16:10:20;;;;;;;1.90;0.90;;;13.10;67.40;;;;;;20622578;28;20069;-77
2022/01/04 16:30:40;;;;;;;1.65;0.90;;;13.90;64.90;;;;;;20645758;28;20512;-77
2022/01/04 16:40:41;;;;;;;1.67;1.00;;;14.10;64.10;;;;;;20638693;28;20550;-80
2022/01/04 16:50:42;;;;;;;1.92;1.17;;;14.10;63.90;;;;;;20628393;28;20141;-77
2022/01/04 17:00:42;;;;;;;1.02;0.70;;;13.70;64.40;;;;;;20538149;28;20060;-76
2022/01/04 17:10:55;;;;;;;3.17;1.10;;;13.40;65.30;;;;;;20556663;28;20044;-77
2022/01/04 17:20:55;;;;;;;3.17;1.38;;;13.00;66.10;;;;;;20561184;28;20357;-78
2022/01/04 17:30:56;;;;;;;4.07;1.70;;;12.80;66.90;;;;;;20557200;28;20556;-82
2022/01/04 17:40:56;;;;;;;5.38;1.60;;;12.60;67.50;;;;;;20573065;28;20054;-78
2022/01/04 17:50:57;;;;;;;2.90;1.30;;;12.40;68.00;;;;;;20540237;28;20054;-78
2022/01/04 18:01:02;;;;;;;3.03;1.17;;;12.30;68.40;;;;;;20538896;28;20691;-78
2022/01/04 18:11:02;;;;;;;3.38;1.35;;;12.30;68.70;;;;;;20556572;28;20313;-79
2022/01/04 18:21:03;;;;;;;1.90;1.08;;;12.20;68.90;;;;;;20542586;28;20026;-75
2022/01/04 18:31:03;;;;;;;1.63;1.23;;;12.10;69.10;;;;;;20644533;28;20053;-76
2022/01/04 18:41:06;;;;;;;1.13;0.93;;;12.10;69.20;;;;;;20647826;28;20121;-77
2022/01/04 18:51:06;;;;;;;1.50;0.95;;;12.00;69.20;;;;;;20631307;28;20125;-77
2022/01/04 19:01:07;;;;;;;1.15;0.60;;;12.00;69.30;;;;;;20630018;28;20498;-75
2022/01/04 19:11:07;;;;;;;3.60;0.73;;;12.00;69.30;;;;;;20629493;28;20040;-75
2022/01/04 19:21:08;;;;;;;1.05;0.68;;;12.00;69.20;;;;;;20644322;28;20373;-75
2022/01/04 19:31:10;;;;;;;2.13;1.00;;;12.10;69.10;;;;;;20627950;28;20397;-76
2022/01/04 19:41:11;;;;;;;3.03;1.17;;;12.10;68.90;;;;;;20627737;28;20034;-76
2022/01/04 19:51:11;;;;;;;4.55;1.20;;;12.10;68.90;;;;;;20644200;28;20397;-75
2022/01/04 20:01:16;;;;;;;1.20;0.95;;;12.10;68.70;;;;;;20626863;28;20042;-76
2022/01/04 20:11:18;;;;;;;2.22;1.05;;;12.10;68.60;;;;;;20633471;28;20069;-75
2022/01/04 20:21:19;;;;;;;1.55;0.75;;;12.10;68.60;;;;;;20643835;28;20042;-75
2022/01/04 20:31:19;;;;;;;2.65;0.93;;;12.10;68.50;;;;;;20626859;28;20034;-76
2022/01/04 20:41:20;;;;;;;1.75;0.98;;;12.20;68.60;;;;;;20605793;28;20038;-76
2022/01/04 20:51:20;;;;;;;2.53;0.93;;;12.10;68.50;;;;;;20650312;28;20092;-77
2022/01/04 21:01:21;;;;;;;2.20;1.10;;;12.10;68.50;;;;;;20639520;28;20046;-76
2022/01/04 21:11:21;;;;;;;1.73;0.88;;;12.00;68.50;;;;;;20628863;28;20436;-76
2022/01/04 21:21:22;;;;;;;2.55;0.68;;;12.00;68.40;;;;;;20582304;28;20038;-76
2022/01/04 21:31:23;;;;;;;2.47;1.20;;;12.00;68.40;;;;;;20593996;28;20129;-75
2022/01/04 21:41:23;;;;;;;3.70;1.48;;;12.00;68.40;;;;;;20604387;28;20461;-75
2022/01/04 21:51:24;;;;;;;0.60;0.40;;;12.00;68.30;;;;;;20548369;28;20070;-77
2022/01/04 22:01:25;;;;;;;1.50;0.50;;;12.00;68.20;;;;;;20540869;28;20768;-77
2022/01/04 22:11:26;;;;;;;1.83;0.90;;;12.00;68.20;;;;;;20616790;28;20060;-76
2022/01/04 22:21:26;;;;;;;2.65;0.93;;;12.00;68.10;;;;;;20631950;28;20468;-76
2022/01/04 22:31:27;;;;;;;3.67;1.10;;;12.00;68.10;;;;;;20639255;28;20096;-79
2022/01/04 22:41:28;;;;;;;1.73;0.80;;;12.00;68.00;;;;;;20590709;28;20033;-77
2022/01/04 22:51:28;;;;;;;2.40;0.63;;;11.90;67.90;;;;;;20606452;28;20540;-78
2022/01/04 23:01:29;;;;;;;1.67;0.80;;;11.90;67.90;;;;;;20591013;28;20380;-78
2022/01/04 23:11:29;;;;;;;3.13;0.63;;;12.00;68.00;;;;;;20573520;28;20297;-77
2022/01/04 23:21:30;;;;;;;1.35;0.60;;;12.00;67.90;;;;;;20589086;28;20137;-77
2022/01/04 23:31:31;;;;;;;2.35;0.80;;;12.00;68.00;;;;;;20569808;28;20370;-77
2022/01/04 23:41:32;;;;;;;3.55;0.60;;;11.90;67.90;;;;;;20533925;28;20043;-76
2022/01/04 23:51:33;;;;;;;2.38;0.85;;;12.00;67.90;;;;;;20549472;28;20045;-76
